Terminal Aerodrome Forecast
Issued by NWS

Home | Current Version | Previous Version | Text Only | Print | Product List | Glossary On
Versions: 1 2 3 4 5 6 7 8 9 10 11 12 13 14 15 16 17 18
000
FTPA31 PHFO 221810 AAA
TAFHNY
TAF AMD
PHNY 221810Z 2218/2318 24005KT P6SM VCSH BKN005 BKN030 OVC150
     FM230300 VRB05KT P6SM SCT008 BKN035 OVC180=

USA.gov is the U.S. government's official web portal to all federal, state and local government web resources and services.